sensor_id;sensor_type;location;lat;lon;timestamp;P1;durP1;ratioP1;P2;durP2;ratioP2
29280;SDS011;25048;49.590;11.026;2022-09-01T00:01:51;5.00;;;4.30;;
29280;SDS011;25048;49.590;11.026;2022-09-01T00:04:21;7.85;;;3.75;;
29280;SDS011;25048;49.590;11.026;2022-09-01T00:06:51;4.60;;;3.72;;
29280;SDS011;25048;49.590;11.026;2022-09-01T00:09:20;5.37;;;4.40;;
29280;SDS011;25048;49.590;11.026;2022-09-01T00:11:50;6.60;;;4.05;;
29280;SDS011;25048;49.590;11.026;2022-09-01T00:14:24;10.43;;;4.50;;
29280;SDS011;25048;49.590;11.026;2022-09-01T00:16:53;5.22;;;3.85;;
29280;SDS011;25048;49.590;11.026;2022-09-01T00:19:21;6.60;;;3.85;;
29280;SDS011;25048;49.590;11.026;2022-09-01T00:21:50;5.12;;;3.50;;
29280;SDS011;25048;49.590;11.026;2022-09-01T00:24:17;8.25;;;4.15;;
29280;SDS011;25048;49.590;11.026;2022-09-01T00:26:45;4.35;;;3.95;;
29280;SDS011;25048;49.590;11.026;2022-09-01T00:29:13;4.90;;;4.12;;
29280;SDS011;25048;49.590;11.026;2022-09-01T00:31:41;5.27;;;4.33;;
29280;SDS011;25048;49.590;11.026;2022-09-01T00:34:09;7.55;;;4.47;;
29280;SDS011;25048;49.590;11.026;2022-09-01T00:36:37;7.67;;;4.53;;
29280;SDS011;25048;49.590;11.026;2022-09-01T00:39:04;5.12;;;3.98;;
29280;SDS011;25048;49.590;11.026;2022-09-01T00:41:34;5.00;;;3.67;;
29280;SDS011;25048;49.590;11.026;2022-09-01T00:44:08;4.42;;;3.72;;
29280;SDS011;25048;49.590;11.026;2022-09-01T00:46:39;4.00;;;3.70;;
29280;SDS011;25048;49.590;11.026;2022-09-01T00:49:51;6.72;;;3.80;;
29280;SDS011;25048;49.590;11.026;2022-09-01T00:51:50;4.83;;;4.22;;
29280;SDS011;25048;49.590;11.026;2022-09-01T00:54:20;8.05;;;4.47;;
29280;SDS011;25048;49.590;11.026;2022-09-01T00:56:49;6.50;;;3.90;;
29280;SDS011;25048;49.590;11.026;2022-09-01T00:59:18;4.97;;;4.00;;
29280;SDS011;25048;49.590;11.026;2022-09-01T01:01:47;4.62;;;3.60;;
29280;SDS011;25048;49.590;11.026;2022-09-01T01:04:15;5.30;;;4.30;;
29280;SDS011;25048;49.590;11.026;2022-09-01T01:06:45;4.50;;;4.10;;
29280;SDS011;25048;49.590;11.026;2022-09-01T01:09:15;4.95;;;4.45;;
29280;SDS011;25048;49.590;11.026;2022-09-01T01:11:44;4.33;;;3.90;;
29280;SDS011;25048;49.590;11.026;2022-09-01T01:14:12;5.53;;;4.30;;
29280;SDS011;25048;49.590;11.026;2022-09-01T01:16:43;5.78;;;4.15;;
29280;SDS011;25048;49.590;11.026;2022-09-01T01:19:17;10.87;;;4.47;;
29280;SDS011;25048;49.590;11.026;2022-09-01T01:22:12;4.30;;;3.67;;
29280;SDS011;25048;49.590;11.026;2022-09-01T01:24:58;3.92;;;3.55;;
29280;SDS011;25048;49.590;11.026;2022-09-01T01:27:33;5.35;;;4.42;;
29280;SDS011;25048;49.590;11.026;2022-09-01T01:30:03;7.83;;;3.98;;
29280;SDS011;25048;49.590;11.026;2022-09-01T01:32:33;5.00;;;4.10;;
29280;SDS011;25048;49.590;11.026;2022-09-01T01:35:01;5.35;;;4.00;;
29280;SDS011;25048;49.590;11.026;2022-09-01T01:37:33;5.87;;;4.30;;
29280;SDS011;25048;49.590;11.026;2022-09-01T01:40:01;4.90;;;3.97;;
29280;SDS011;25048;49.590;11.026;2022-09-01T01:42:28;4.60;;;4.10;;
29280;SDS011;25048;49.590;11.026;2022-09-01T01:44:59;5.50;;;4.75;;
29280;SDS011;25048;49.590;11.026;2022-09-01T01:47:27;4.67;;;4.10;;
29280;SDS011;25048;49.590;11.026;2022-09-01T01:49:55;4.72;;;3.72;;
29280;SDS011;25048;49.590;11.026;2022-09-01T01:52:23;5.58;;;4.22;;
29280;SDS011;25048;49.590;11.026;2022-09-01T01:54:51;5.87;;;4.47;;
29280;SDS011;25048;49.590;11.026;2022-09-01T01:57:19;3.72;;;3.37;;
29280;SDS011;25048;49.590;11.026;2022-09-01T01:59:46;5.77;;;4.23;;
29280;SDS011;25048;49.590;11.026;2022-09-01T02:02:14;4.60;;;4.00;;
29280;SDS011;25048;49.590;11.026;2022-09-01T02:04:41;8.75;;;4.75;;
29280;SDS011;25048;49.590;11.026;2022-09-01T02:07:10;5.72;;;4.10;;
29280;SDS011;25048;49.590;11.026;2022-09-01T02:09:38;7.03;;;4.20;;
29280;SDS011;25048;49.590;11.026;2022-09-01T02:12:08;9.30;;;4.23;;
29280;SDS011;25048;49.590;11.026;2022-09-01T02:14:36;14.67;;;4.63;;
29280;SDS011;25048;49.590;11.026;2022-09-01T02:17:03;8.03;;;4.25;;
29280;SDS011;25048;49.590;11.026;2022-09-01T02:19:32;5.20;;;3.70;;
29280;SDS011;25048;49.590;11.026;2022-09-01T02:22:02;5.42;;;3.98;;
29280;SDS011;25048;49.590;11.026;2022-09-01T02:24:30;5.08;;;4.00;;
29280;SDS011;25048;49.590;11.026;2022-09-01T02:26:57;4.20;;;3.80;;
29280;SDS011;25048;49.590;11.026;2022-09-01T02:29:25;4.87;;;4.10;;
29280;SDS011;25048;49.590;11.026;2022-09-01T02:31:54;5.77;;;4.33;;
29280;SDS011;25048;49.590;11.026;2022-09-01T02:34:23;6.40;;;4.07;;
29280;SDS011;25048;49.590;11.026;2022-09-01T02:36:53;4.43;;;3.83;;
29280;SDS011;25048;49.590;11.026;2022-09-01T02:39:22;5.08;;;4.08;;
29280;SDS011;25048;49.590;11.026;2022-09-01T02:41:56;6.47;;;4.60;;
29280;SDS011;25048;49.590;11.026;2022-09-01T02:44:26;5.37;;;4.87;;
29280;SDS011;25048;49.590;11.026;2022-09-01T02:46:57;5.33;;;4.60;;
29280;SDS011;25048;49.590;11.026;2022-09-01T02:49:26;5.95;;;4.60;;
29280;SDS011;25048;49.590;11.026;2022-09-01T02:51:55;6.97;;;4.40;;
29280;SDS011;25048;49.590;11.026;2022-09-01T02:54:26;5.20;;;4.70;;
29280;SDS011;25048;49.590;11.026;2022-09-01T02:56:55;5.30;;;4.70;;
29280;SDS011;25048;49.590;11.026;2022-09-01T02:59:24;8.27;;;5.00;;
29280;SDS011;25048;49.590;11.026;2022-09-01T03:01:53;5.70;;;4.70;;
29280;SDS011;25048;49.590;11.026;2022-09-01T03:04:22;5.42;;;4.87;;
29280;SDS011;25048;49.590;11.026;2022-09-01T03:06:51;5.03;;;4.20;;
29280;SDS011;25048;49.590;11.026;2022-09-01T03:09:19;5.20;;;4.67;;
29280;SDS011;25048;49.590;11.026;2022-09-01T03:11:48;5.33;;;4.40;;
29280;SDS011;25048;49.590;11.026;2022-09-01T03:14:17;5.45;;;4.40;;
29280;SDS011;25048;49.590;11.026;2022-09-01T03:16:45;7.90;;;4.47;;
29280;SDS011;25048;49.590;11.026;2022-09-01T03:19:13;6.03;;;4.70;;
29280;SDS011;25048;49.590;11.026;2022-09-01T03:21:42;5.50;;;4.80;;
29280;SDS011;25048;49.590;11.026;2022-09-01T03:24:12;7.07;;;4.40;;
29280;SDS011;25048;49.590;11.026;2022-09-01T03:26:41;5.43;;;4.23;;
29280;SDS011;25048;49.590;11.026;2022-09-01T03:29:10;4.97;;;4.23;;
29280;SDS011;25048;49.590;11.026;2022-09-01T03:31:37;4.87;;;4.20;;
29280;SDS011;25048;49.590;11.026;2022-09-01T03:34:05;5.70;;;4.70;;
29280;SDS011;25048;49.590;11.026;2022-09-01T03:36:34;6.00;;;4.20;;
29280;SDS011;25048;49.590;11.026;2022-09-01T03:39:02;5.83;;;4.83;;
29280;SDS011;25048;49.590;11.026;2022-09-01T03:41:29;7.17;;;4.60;;
29280;SDS011;25048;49.590;11.026;2022-09-01T03:43:57;5.77;;;4.30;;
29280;SDS011;25048;49.590;11.026;2022-09-01T03:46:26;5.07;;;4.07;;
29280;SDS011;25048;49.590;11.026;2022-09-01T03:48:56;4.77;;;4.03;;
29280;SDS011;25048;49.590;11.026;2022-09-01T03:51:26;5.70;;;4.77;;
29280;SDS011;25048;49.590;11.026;2022-09-01T03:53:56;5.87;;;4.83;;
29280;SDS011;25048;49.590;11.026;2022-09-01T03:56:25;4.20;;;3.63;;
29280;SDS011;25048;49.590;11.026;2022-09-01T03:58:55;5.43;;;4.47;;
29280;SDS011;25048;49.590;11.026;2022-09-01T04:01:25;4.83;;;3.97;;
29280;SDS011;25048;49.590;11.026;2022-09-01T04:03:53;5.93;;;4.57;;
29280;SDS011;25048;49.590;11.026;2022-09-01T04:06:20;6.70;;;4.00;;
29280;SDS011;25048;49.590;11.026;2022-09-01T04:08:48;7.03;;;4.43;;
29280;SDS011;25048;49.590;11.026;2022-09-01T04:11:18;5.50;;;4.53;;
29280;SDS011;25048;49.590;11.026;2022-09-01T04:13:49;6.83;;;4.50;;
29280;SDS011;25048;49.590;11.026;2022-09-01T04:16:18;4.70;;;4.20;;
29280;SDS011;25048;49.590;11.026;2022-09-01T04:19:11;5.47;;;4.33;;
29280;SDS011;25048;49.590;11.026;2022-09-01T04:21:48;6.83;;;4.30;;
29280;SDS011;25048;49.590;11.026;2022-09-01T04:24:19;6.03;;;4.37;;
29280;SDS011;25048;49.590;11.026;2022-09-01T04:26:49;7.93;;;4.50;;
29280;SDS011;25048;49.590;11.026;2022-09-01T04:29:18;7.37;;;5.10;;
29280;SDS011;25048;49.590;11.026;2022-09-01T04:31:55;10.23;;;4.57;;
29280;SDS011;25048;49.590;11.026;2022-09-01T04:34:21;5.50;;;4.67;;
29280;SDS011;25048;49.590;11.026;2022-09-01T04:36:50;6.13;;;5.00;;
29280;SDS011;25048;49.590;11.026;2022-09-01T04:39:19;6.03;;;4.83;;
29280;SDS011;25048;49.590;11.026;2022-09-01T04:41:47;6.30;;;4.70;;
29280;SDS011;25048;49.590;11.026;2022-09-01T04:44:15;7.20;;;5.23;;
29280;SDS011;25048;49.590;11.026;2022-09-01T04:46:44;6.53;;;4.80;;
29280;SDS011;25048;49.590;11.026;2022-09-01T04:49:13;5.30;;;4.57;;
29280;SDS011;25048;49.590;11.026;2022-09-01T04:51:45;8.93;;;4.40;;
29280;SDS011;25048;49.590;11.026;2022-09-01T04:54:14;5.43;;;4.60;;
29280;SDS011;25048;49.590;11.026;2022-09-01T04:56:43;6.50;;;5.20;;
29280;SDS011;25048;49.590;11.026;2022-09-01T04:59:14;7.10;;;5.10;;
29280;SDS011;25048;49.590;11.026;2022-09-01T05:01:45;5.47;;;4.83;;
29280;SDS011;25048;49.590;11.026;2022-09-01T05:04:18;5.50;;;4.87;;
29280;SDS011;25048;49.590;11.026;2022-09-01T05:06:49;6.53;;;4.63;;
29280;SDS011;25048;49.590;11.026;2022-09-01T05:09:20;13.40;;;5.30;;
29280;SDS011;25048;49.590;11.026;2022-09-01T05:11:49;6.23;;;5.10;;
29280;SDS011;25048;49.590;11.026;2022-09-01T05:14:18;6.50;;;4.70;;
29280;SDS011;25048;49.590;11.026;2022-09-01T05:16:47;10.17;;;4.80;;
29280;SDS011;25048;49.590;11.026;2022-09-01T05:19:16;7.33;;;5.57;;
29280;SDS011;25048;49.590;11.026;2022-09-01T05:21:46;8.33;;;5.60;;
29280;SDS011;25048;49.590;11.026;2022-09-01T05:24:16;6.67;;;5.00;;
29280;SDS011;25048;49.590;11.026;2022-09-01T05:26:46;6.97;;;4.93;;
29280;SDS011;25048;49.590;11.026;2022-09-01T05:29:15;7.50;;;5.20;;
29280;SDS011;25048;49.590;11.026;2022-09-01T05:31:45;6.60;;;5.47;;
29280;SDS011;25048;49.590;11.026;2022-09-01T05:34:14;11.50;;;5.50;;
29280;SDS011;25048;49.590;11.026;2022-09-01T05:36:44;6.50;;;5.53;;
29280;SDS011;25048;49.590;11.026;2022-09-01T05:39:13;9.33;;;5.40;;
29280;SDS011;25048;49.590;11.026;2022-09-01T05:41:41;5.70;;;4.70;;
29280;SDS011;25048;49.590;11.026;2022-09-01T05:44:08;6.10;;;5.23;;
29280;SDS011;25048;49.590;11.026;2022-09-01T05:46:37;8.23;;;5.10;;
29280;SDS011;25048;49.590;11.026;2022-09-01T05:49:06;9.83;;;5.77;;
29280;SDS011;25048;49.590;11.026;2022-09-01T05:51:36;7.80;;;5.40;;
29280;SDS011;25048;49.590;11.026;2022-09-01T05:54:06;6.30;;;5.13;;
29280;SDS011;25048;49.590;11.026;2022-09-01T05:56:35;6.70;;;5.20;;
29280;SDS011;25048;49.590;11.026;2022-09-01T05:59:05;7.27;;;5.03;;
29280;SDS011;25048;49.590;11.026;2022-09-01T06:01:33;6.17;;;4.77;;
29280;SDS011;25048;49.590;11.026;2022-09-01T06:04:02;5.63;;;4.87;;
29280;SDS011;25048;49.590;11.026;2022-09-01T06:06:36;6.27;;;4.83;;
29280;SDS011;25048;49.590;11.026;2022-09-01T06:09:06;7.50;;;4.50;;
29280;SDS011;25048;49.590;11.026;2022-09-01T06:11:35;6.73;;;4.30;;
29280;SDS011;25048;49.590;11.026;2022-09-01T06:14:03;6.03;;;4.30;;
29280;SDS011;25048;49.590;11.026;2022-09-01T06:16:31;4.35;;;3.95;;
29280;SDS011;25048;49.590;11.026;2022-09-01T06:19:00;5.70;;;3.97;;
29280;SDS011;25048;49.590;11.026;2022-09-01T06:21:29;5.28;;;3.40;;
29280;SDS011;25048;49.590;11.026;2022-09-01T06:23:57;4.87;;;3.23;;
29280;SDS011;25048;49.590;11.026;2022-09-01T06:26:27;4.80;;;3.17;;
29280;SDS011;25048;49.590;11.026;2022-09-01T06:29:03;5.80;;;3.37;;
29280;SDS011;25048;49.590;11.026;2022-09-01T06:31:34;5.37;;;3.00;;
29280;SDS011;25048;49.590;11.026;2022-09-01T06:34:04;3.93;;;3.37;;
29280;SDS011;25048;49.590;11.026;2022-09-01T06:36:37;7.13;;;3.37;;
29280;SDS011;25048;49.590;11.026;2022-09-01T06:39:08;4.45;;;2.67;;
29280;SDS011;25048;49.590;11.026;2022-09-01T06:41:37;4.28;;;2.80;;
29280;SDS011;25048;49.590;11.026;2022-09-01T06:44:05;4.17;;;2.85;;
29280;SDS011;25048;49.590;11.026;2022-09-01T06:46:33;7.60;;;3.23;;
29280;SDS011;25048;49.590;11.026;2022-09-01T06:49:00;3.85;;;2.70;;
29280;SDS011;25048;49.590;11.026;2022-09-01T06:51:28;6.08;;;3.10;;
29280;SDS011;25048;49.590;11.026;2022-09-01T06:53:56;5.70;;;2.95;;
29280;SDS011;25048;49.590;11.026;2022-09-01T06:56:24;4.78;;;2.80;;
29280;SDS011;25048;49.590;11.026;2022-09-01T06:58:54;2.62;;;2.33;;
29280;SDS011;25048;49.590;11.026;2022-09-01T07:01:23;4.85;;;2.90;;
29280;SDS011;25048;49.590;11.026;2022-09-01T07:03:52;3.85;;;3.00;;
29280;SDS011;25048;49.590;11.026;2022-09-01T07:06:23;4.70;;;2.70;;
29280;SDS011;25048;49.590;11.026;2022-09-01T07:08:56;3.00;;;2.33;;
29280;SDS011;25048;49.590;11.026;2022-09-01T07:11:27;5.55;;;2.58;;
29280;SDS011;25048;49.590;11.026;2022-09-01T07:13:58;2.85;;;2.22;;
29280;SDS011;25048;49.590;11.026;2022-09-01T07:16:29;4.08;;;2.30;;
29280;SDS011;25048;49.590;11.026;2022-09-01T07:18:59;5.83;;;2.40;;
29280;SDS011;25048;49.590;11.026;2022-09-01T07:21:28;3.98;;;2.58;;
29280;SDS011;25048;49.590;11.026;2022-09-01T07:23:57;4.67;;;2.60;;
29280;SDS011;25048;49.590;11.026;2022-09-01T07:26:27;5.12;;;2.80;;
29280;SDS011;25048;49.590;11.026;2022-09-01T07:28:55;3.65;;;2.75;;
29280;SDS011;25048;49.590;11.026;2022-09-01T07:31:25;4.67;;;2.50;;
29280;SDS011;25048;49.590;11.026;2022-09-01T07:33:54;5.45;;;2.45;;
29280;SDS011;25048;49.590;11.026;2022-09-01T07:36:23;2.62;;;2.30;;
29280;SDS011;25048;49.590;11.026;2022-09-01T07:38:51;4.45;;;2.58;;
29280;SDS011;25048;49.590;11.026;2022-09-01T07:41:20;3.92;;;2.55;;
29280;SDS011;25048;49.590;11.026;2022-09-01T07:43:50;5.25;;;2.55;;
29280;SDS011;25048;49.590;11.026;2022-09-01T07:46:20;3.12;;;2.77;;
29280;SDS011;25048;49.590;11.026;2022-09-01T07:48:54;6.65;;;2.83;;
29280;SDS011;25048;49.590;11.026;2022-09-01T07:51:22;4.30;;;2.58;;
29280;SDS011;25048;49.590;11.026;2022-09-01T07:53:51;4.30;;;2.30;;
29280;SDS011;25048;49.590;11.026;2022-09-01T07:56:20;3.33;;;2.20;;
29280;SDS011;25048;49.590;11.026;2022-09-01T07:58:50;4.05;;;2.27;;
29280;SDS011;25048;49.590;11.026;2022-09-01T08:01:22;3.33;;;2.00;;
29280;SDS011;25048;49.590;11.026;2022-09-01T08:03:52;3.90;;;1.57;;
29280;SDS011;25048;49.590;11.026;2022-09-01T08:06:23;4.67;;;2.20;;
29280;SDS011;25048;49.590;11.026;2022-09-01T08:08:53;2.75;;;2.10;;
29280;SDS011;25048;49.590;11.026;2022-09-01T08:11:26;4.35;;;1.98;;
29280;SDS011;25048;49.590;11.026;2022-09-01T08:13:55;6.95;;;2.45;;
29280;SDS011;25048;49.590;11.026;2022-09-01T08:19:48;3.83;;;1.87;;
29280;SDS011;25048;49.590;11.026;2022-09-01T08:22:16;3.42;;;2.10;;
29280;SDS011;25048;49.590;11.026;2022-09-01T08:24:45;2.37;;;1.82;;
29280;SDS011;25048;49.590;11.026;2022-09-01T08:27:15;2.52;;;1.85;;
29280;SDS011;25048;49.590;11.026;2022-09-01T08:29:43;4.75;;;1.92;;
29280;SDS011;25048;49.590;11.026;2022-09-01T08:32:10;3.77;;;1.80;;
29280;SDS011;25048;49.590;11.026;2022-09-01T08:34:38;3.42;;;1.82;;
29280;SDS011;25048;49.590;11.026;2022-09-01T08:37:07;3.47;;;2.10;;
29280;SDS011;25048;49.590;11.026;2022-09-01T08:39:35;2.20;;;2.00;;
29280;SDS011;25048;49.590;11.026;2022-09-01T08:47:36;1.70;;;1.60;;
29280;SDS011;25048;49.590;11.026;2022-09-01T08:50:04;4.30;;;1.92;;
29280;SDS011;25048;49.590;11.026;2022-09-01T08:55:15;1.72;;;1.57;;
29280;SDS011;25048;49.590;11.026;2022-09-01T08:57:48;4.08;;;1.67;;
29280;SDS011;25048;49.590;11.026;2022-09-01T09:00:17;1.87;;;1.52;;
29280;SDS011;25048;49.590;11.026;2022-09-01T09:05:48;3.17;;;1.70;;
29280;SDS011;25048;49.590;11.026;2022-09-01T09:11:04;1.87;;;1.60;;
29280;SDS011;25048;49.590;11.026;2022-09-01T09:16:12;6.72;;;1.65;;
29280;SDS011;25048;49.590;11.026;2022-09-01T09:19:04;2.87;;;1.52;;
29280;SDS011;25048;49.590;11.026;2022-09-01T09:21:23;2.42;;;1.52;;
29280;SDS011;25048;49.590;11.026;2022-09-01T09:23:55;3.25;;;1.65;;
29280;SDS011;25048;49.590;11.026;2022-09-01T09:26:19;2.52;;;1.72;;
29280;SDS011;25048;49.590;11.026;2022-09-01T09:28:47;4.05;;;1.85;;
29280;SDS011;25048;49.590;11.026;2022-09-01T09:31:38;3.00;;;2.15;;
29280;SDS011;25048;49.590;11.026;2022-09-01T09:34:28;3.17;;;1.80;;
29280;SDS011;25048;49.590;11.026;2022-09-01T09:37:00;3.47;;;1.50;;
29280;SDS011;25048;49.590;11.026;2022-09-01T09:39:42;4.42;;;1.87;;
29280;SDS011;25048;49.590;11.026;2022-09-01T09:42:10;1.92;;;1.72;;
29280;SDS011;25048;49.590;11.026;2022-09-01T09:44:40;3.40;;;1.70;;
29280;SDS011;25048;49.590;11.026;2022-09-01T09:47:12;2.95;;;1.60;;
29280;SDS011;25048;49.590;11.026;2022-09-01T09:49:46;1.98;;;1.55;;
29280;SDS011;25048;49.590;11.026;2022-09-01T09:52:15;2.20;;;1.50;;
29280;SDS011;25048;49.590;11.026;2022-09-01T09:55:17;1.47;;;1.10;;
29280;SDS011;25048;49.590;11.026;2022-09-01T09:57:37;2.85;;;1.62;;
29280;SDS011;25048;49.590;11.026;2022-09-01T10:00:06;5.47;;;1.45;;
29280;SDS011;25048;49.590;11.026;2022-09-01T10:02:35;1.85;;;1.40;;
29280;SDS011;25048;49.590;11.026;2022-09-01T10:08:02;3.10;;;1.20;;
29280;SDS011;25048;49.590;11.026;2022-09-01T10:10:42;2.37;;;1.32;;
29280;SDS011;25048;49.590;11.026;2022-09-01T10:13:22;2.55;;;1.50;;
29280;SDS011;25048;49.590;11.026;2022-09-01T10:15:51;1.50;;;1.25;;
29280;SDS011;25048;49.590;11.026;2022-09-01T10:18:22;1.32;;;1.20;;
29280;SDS011;25048;49.590;11.026;2022-09-01T10:21:09;3.55;;;1.50;;
29280;SDS011;25048;49.590;11.026;2022-09-01T10:23:36;2.30;;;1.42;;
29280;SDS011;25048;49.590;11.026;2022-09-01T10:26:08;2.33;;;1.30;;
29280;SDS011;25048;49.590;11.026;2022-09-01T10:28:43;2.87;;;1.60;;
29280;SDS011;25048;49.590;11.026;2022-09-01T10:31:07;2.35;;;1.50;;
29280;SDS011;25048;49.590;11.026;2022-09-01T10:33:35;2.27;;;1.62;;
29280;SDS011;25048;49.590;11.026;2022-09-01T10:36:03;2.25;;;1.45;;
29280;SDS011;25048;49.590;11.026;2022-09-01T10:38:32;1.60;;;1.45;;
29280;SDS011;25048;49.590;11.026;2022-09-01T10:41:00;2.52;;;1.40;;
29280;SDS011;25048;49.590;11.026;2022-09-01T10:43:41;3.08;;;2.00;;
29280;SDS011;25048;49.590;11.026;2022-09-01T10:48:55;1.82;;;1.40;;
29280;SDS011;25048;49.590;11.026;2022-09-01T10:53:54;3.30;;;1.75;;
29280;SDS011;25048;49.590;11.026;2022-09-01T10:56:35;2.22;;;1.47;;
29280;SDS011;25048;49.590;11.026;2022-09-01T10:59:07;1.60;;;1.40;;
29280;SDS011;25048;49.590;11.026;2022-09-01T11:25:42;2.30;;;1.70;;
29280;SDS011;25048;49.590;11.026;2022-09-01T11:36:28;3.22;;;1.62;;
29280;SDS011;25048;49.590;11.026;2022-09-01T11:44:48;2.20;;;1.75;;
29280;SDS011;25048;49.590;11.026;2022-09-01T11:47:25;2.27;;;1.85;;
29280;SDS011;25048;49.590;11.026;2022-09-01T11:50:05;1.62;;;1.52;;
29280;SDS011;25048;49.590;11.026;2022-09-01T11:52:35;3.05;;;2.10;;
29280;SDS011;25048;49.590;11.026;2022-09-01T11:55:06;2.52;;;2.10;;
29280;SDS011;25048;49.590;11.026;2022-09-01T11:57:36;3.95;;;1.70;;
29280;SDS011;25048;49.590;11.026;2022-09-01T12:00:10;2.00;;;1.60;;
29280;SDS011;25048;49.590;11.026;2022-09-01T12:02:47;2.67;;;1.98;;
29280;SDS011;25048;49.590;11.026;2022-09-01T12:05:23;2.25;;;1.67;;
29280;SDS011;25048;49.590;11.026;2022-09-01T12:07:52;5.92;;;2.50;;
29280;SDS011;25048;49.590;11.026;2022-09-01T12:13:06;3.52;;;1.90;;
29280;SDS011;25048;49.590;11.026;2022-09-01T12:15:39;3.05;;;1.90;;
29280;SDS011;25048;49.590;11.026;2022-09-01T12:18:08;2.95;;;1.95;;
29280;SDS011;25048;49.590;11.026;2022-09-01T12:20:37;2.20;;;1.80;;
29280;SDS011;25048;49.590;11.026;2022-09-01T12:25:45;4.17;;;1.70;;
29280;SDS011;25048;49.590;11.026;2022-09-01T12:28:13;1.95;;;1.80;;
29280;SDS011;25048;49.590;11.026;2022-09-01T12:30:41;2.70;;;1.90;;
29280;SDS011;25048;49.590;11.026;2022-09-01T12:33:10;4.08;;;1.90;;
29280;SDS011;25048;49.590;11.026;2022-09-01T12:35:39;2.27;;;2.08;;
29280;SDS011;25048;49.590;11.026;2022-09-01T12:40:50;1.67;;;1.40;;
29280;SDS011;25048;49.590;11.026;2022-09-01T12:43:32;2.83;;;1.50;;
29280;SDS011;25048;49.590;11.026;2022-09-01T12:46:05;3.30;;;1.98;;
29280;SDS011;25048;49.590;11.026;2022-09-01T12:48:39;2.25;;;1.92;;
29280;SDS011;25048;49.590;11.026;2022-09-01T12:51:21;2.10;;;1.90;;
29280;SDS011;25048;49.590;11.026;2022-09-01T12:53:54;3.30;;;2.20;;
29280;SDS011;25048;49.590;11.026;2022-09-01T12:56:27;4.62;;;1.60;;
29280;SDS011;25048;49.590;11.026;2022-09-01T12:59:10;2.62;;;1.80;;
29280;SDS011;25048;49.590;11.026;2022-09-01T13:01:41;4.40;;;2.10;;
29280;SDS011;25048;49.590;11.026;2022-09-01T13:04:29;2.45;;;1.77;;
29280;SDS011;25048;49.590;11.026;2022-09-01T13:07:00;4.67;;;2.30;;
29280;SDS011;25048;49.590;11.026;2022-09-01T13:09:29;2.15;;;1.95;;
29280;SDS011;25048;49.590;11.026;2022-09-01T13:12:10;2.67;;;2.10;;
29280;SDS011;25048;49.590;11.026;2022-09-01T13:14:42;6.03;;;2.30;;
29280;SDS011;25048;49.590;11.026;2022-09-01T13:17:09;7.10;;;2.25;;
29280;SDS011;25048;49.590;11.026;2022-09-01T13:19:37;2.40;;;1.80;;
29280;SDS011;25048;49.590;11.026;2022-09-01T13:22:05;4.45;;;2.08;;
29280;SDS011;25048;49.590;11.026;2022-09-01T13:24:32;2.50;;;1.77;;
29280;SDS011;25048;49.590;11.026;2022-09-01T13:27:00;1.80;;;1.60;;
29280;SDS011;25048;49.590;11.026;2022-09-01T13:29:27;2.45;;;1.70;;
29280;SDS011;25048;49.590;11.026;2022-09-01T13:31:56;2.72;;;1.80;;
29280;SDS011;25048;49.590;11.026;2022-09-01T13:34:24;2.00;;;1.80;;
29280;SDS011;25048;49.590;11.026;2022-09-01T13:36:51;2.50;;;1.98;;
29280;SDS011;25048;49.590;11.026;2022-09-01T13:39:19;2.52;;;1.80;;
29280;SDS011;25048;49.590;11.026;2022-09-01T13:41:47;3.10;;;1.80;;
29280;SDS011;25048;49.590;11.026;2022-09-01T13:44:15;2.42;;;2.00;;
29280;SDS011;25048;49.590;11.026;2022-09-01T13:46:43;4.30;;;2.05;;
29280;SDS011;25048;49.590;11.026;2022-09-01T13:49:11;1.85;;;1.67;;
29280;SDS011;25048;49.590;11.026;2022-09-01T13:51:38;3.05;;;2.08;;
29280;SDS011;25048;49.590;11.026;2022-09-01T13:54:06;2.58;;;2.10;;
29280;SDS011;25048;49.590;11.026;2022-09-01T13:56:34;2.10;;;1.72;;
29280;SDS011;25048;49.590;11.026;2022-09-01T13:59:02;3.10;;;1.67;;
29280;SDS011;25048;49.590;11.026;2022-09-01T14:01:29;1.60;;;1.50;;
29280;SDS011;25048;49.590;11.026;2022-09-01T14:03:57;3.85;;;1.87;;
29280;SDS011;25048;49.590;11.026;2022-09-01T14:06:25;2.27;;;1.60;;
29280;SDS011;25048;49.590;11.026;2022-09-01T14:08:53;1.62;;;1.52;;
29280;SDS011;25048;49.590;11.026;2022-09-01T14:11:20;1.85;;;1.40;;
29280;SDS011;25048;49.590;11.026;2022-09-01T14:13:48;2.98;;;1.60;;
29280;SDS011;25048;49.590;11.026;2022-09-01T14:16:15;2.08;;;1.40;;
29280;SDS011;25048;49.590;11.026;2022-09-01T14:18:43;2.30;;;1.60;;
29280;SDS011;25048;49.590;11.026;2022-09-01T14:21:14;4.35;;;1.65;;
29280;SDS011;25048;49.590;11.026;2022-09-01T14:23:42;1.55;;;1.45;;
29280;SDS011;25048;49.590;11.026;2022-09-01T14:26:11;1.70;;;1.60;;
29280;SDS011;25048;49.590;11.026;2022-09-01T14:28:41;2.37;;;1.70;;
29280;SDS011;25048;49.590;11.026;2022-09-01T14:31:12;1.60;;;1.50;;
29280;SDS011;25048;49.590;11.026;2022-09-01T14:33:42;1.95;;;1.62;;
29280;SDS011;25048;49.590;11.026;2022-09-01T14:36:23;2.00;;;1.72;;
29280;SDS011;25048;49.590;11.026;2022-09-01T14:38:52;4.60;;;1.87;;
29280;SDS011;25048;49.590;11.026;2022-09-01T14:41:21;7.25;;;1.90;;
29280;SDS011;25048;49.590;11.026;2022-09-01T14:43:50;19.87;;;2.20;;
29280;SDS011;25048;49.590;11.026;2022-09-01T14:46:18;2.70;;;1.77;;
29280;SDS011;25048;49.590;11.026;2022-09-01T14:48:46;2.12;;;1.67;;
29280;SDS011;25048;49.590;11.026;2022-09-01T14:51:21;3.52;;;1.95;;
29280;SDS011;25048;49.590;11.026;2022-09-01T14:53:51;4.97;;;1.82;;
29280;SDS011;25048;49.590;11.026;2022-09-01T14:56:20;2.55;;;1.65;;
29280;SDS011;25048;49.590;11.026;2022-09-01T14:58:48;3.58;;;1.92;;
29280;SDS011;25048;49.590;11.026;2022-09-01T15:01:18;2.02;;;1.82;;
29280;SDS011;25048;49.590;11.026;2022-09-01T15:03:47;2.98;;;2.08;;
29280;SDS011;25048;49.590;11.026;2022-09-01T15:06:15;4.60;;;2.02;;
29280;SDS011;25048;49.590;11.026;2022-09-01T15:08:44;5.35;;;2.10;;
29280;SDS011;25048;49.590;11.026;2022-09-01T15:11:14;2.15;;;1.95;;
29280;SDS011;25048;49.590;11.026;2022-09-01T15:13:43;2.00;;;1.80;;
29280;SDS011;25048;49.590;11.026;2022-09-01T15:16:12;3.55;;;2.17;;
29280;SDS011;25048;49.590;11.026;2022-09-01T15:18:44;2.50;;;2.10;;
29280;SDS011;25048;49.590;11.026;2022-09-01T15:21:23;2.00;;;1.80;;
29280;SDS011;25048;49.590;11.026;2022-09-01T15:23:53;2.17;;;1.45;;
29280;SDS011;25048;49.590;11.026;2022-09-01T15:26:21;1.70;;;1.50;;
29280;SDS011;25048;49.590;11.026;2022-09-01T15:28:49;12.65;;;1.98;;
29280;SDS011;25048;49.590;11.026;2022-09-01T15:31:17;2.15;;;1.62;;
29280;SDS011;25048;49.590;11.026;2022-09-01T15:33:47;5.25;;;2.00;;
29280;SDS011;25048;49.590;11.026;2022-09-01T15:36:18;2.30;;;2.08;;
29280;SDS011;25048;49.590;11.026;2022-09-01T15:38:47;2.83;;;2.05;;
29280;SDS011;25048;49.590;11.026;2022-09-01T15:41:16;2.05;;;1.60;;
29280;SDS011;25048;49.590;11.026;2022-09-01T15:43:44;4.58;;;1.57;;
29280;SDS011;25048;49.590;11.026;2022-09-01T15:46:12;2.22;;;1.62;;
29280;SDS011;25048;49.590;11.026;2022-09-01T15:48:40;3.25;;;1.70;;
29280;SDS011;25048;49.590;11.026;2022-09-01T15:53:58;3.22;;;1.87;;
29280;SDS011;25048;49.590;11.026;2022-09-01T15:56:28;2.35;;;1.65;;
29280;SDS011;25048;49.590;11.026;2022-09-01T15:58:56;2.00;;;1.80;;
29280;SDS011;25048;49.590;11.026;2022-09-01T16:01:25;4.05;;;1.70;;
29280;SDS011;25048;49.590;11.026;2022-09-01T16:03:54;2.20;;;1.55;;
29280;SDS011;25048;49.590;11.026;2022-09-01T16:06:22;2.62;;;1.87;;
29280;SDS011;25048;49.590;11.026;2022-09-01T16:08:51;2.72;;;1.62;;